Beardsley, Minnesota
Current Conditions -  °F | °C
As of 11:56 PM on Saturday 22 Nov 2014 (Local Time) from KETH Reporting Station
Haze Haze  
Wind Chill: 25°   Ceiling: Unl
Heat Index: 30°   Visibility: 4mi
Dew Point: 30°   Wind: 5mph
Humidity: 100%   Direction: 130°SE
Pressure: 29.4"   Gusts: NA
Location:  45.56°N, 96.71°W
Report Text: KETH 230556Z AUTO 13004KT 4SM BR CLR M01/M01 A2940 RMK AO2
Loading
Personal Weather Stations






























Interactive Weather Map New forecast layout! Learn more

10-Day Weather Forecast

Advertisements
Track Severe Weather on mobile